Mariner — WDI4275 — position and weather

sailwx.info

Track history (hours):
 
Tides and Currents Weather Stations Pressure Air Temp Water Temp Dewpoint Dewpoint Depression Visibility Wind Speed Wind Dir Waves Ship Positions

Mariner

Owner: Central Boat Rentals, Inc., Morgan City, LA. More information available from US FCC via Universal Licensing System and Coast Guard Vessel Documentation Center.

Last reported at 2017-Oct-29 20:00 UTC. Time now 2017-Nov-22 05:43 UTC.
Position N 29°29' W 090°43'.
Warning: this ship's position is 23 days out of date.

Length 5 m; draft 2 m.

Type: Towing. MMSI: 267014280.

Date/timePositionNaut miles runAvg speedWind from/ knotsBaromVisibWave heightAir tempDewpointWater temp
2017-Oct-29 20:00N 29°29' W 090°43'  
2017-Oct-26 07:59N 29°19' W 090°43'3 3.8
2017-Oct-26 07:15N 29°22' W 090°44'1 4.2
2017-Oct-26 07:00N 29°23' W 090°44'2 4.1
2017-Oct-26 06:30N 29°25' W 090°43'2 4.4
2017-Oct-26 06:00N 29°27' W 090°43'2 4.5
2017-Oct-26 05:30N 29°29' W 090°43'2 4.6
2017-Oct-26 05:00N 29°32' W 090°42'2 4.5
2017-Oct-26 04:30N 29°34' W 090°43'1 1.7
2017-Oct-26 04:00N 29°34' W 090°44'2 4.2
2017-Oct-26 03:30N 29°32' W 090°46'2 4.4
2017-Oct-26 03:00N 29°32' W 090°48'3 4.7
2017-Oct-26 02:27N 29°32' W 090°51'64 2.3
2017-Oct-24 23:09N 29°49' W 092°02'1 7.5
2017-Oct-24 23:00N 29°49' W 092°03'4 7.3
2017-Oct-24 22:30N 29°47' W 092°07'4 7.4
2017-Oct-24 22:00N 29°47' W 092°11'2 3.4
2017-Oct-24 21:30N 29°47' W 092°13'2 3.7
2017-Oct-24 21:00N 29°48' W 092°15'4 7.2
2017-Oct-24 20:30N 29°50' W 092°19'46 6.6
2017-Oct-24 13:33N 29°57' W 093°11'0 6.8
2017-Oct-24 13:29N 29°58' W 093°11'3 6.8
2017-Oct-24 13:00N 30°00' W 093°14'3 6.3
2017-Oct-24 12:30N 30°03' W 093°16'3 6.2
2017-Oct-24 12:00N 30°05' W 093°18'2 3.2
2017-Oct-24 11:30N 30°06' W 093°19'3 6.4
2017-Oct-24 11:00N 30°04' W 093°22'4 7.1
2017-Oct-24 10:30N 30°04' W 093°26'4 7.1
2017-Oct-24 10:00N 30°04' W 093°30'4 7.0
2017-Oct-24 09:30N 30°04' W 093°34'4 7.2
2017-Oct-24 09:00N 30°04' W 093°39'4 7.2
2017-Oct-24 08:29N 30°03' W 093°43'2 4.0
2017-Oct-24 08:00N 30°02' W 093°44'  
2017-Oct-22 01:35N 30°04' W 093°33'1 6.8
2017-Oct-22 01:27N 30°04' W 093°32'3 6.7
2017-Oct-22 01:00N 30°04' W 093°29'3 6.4
2017-Oct-22 00:30N 30°04' W 093°25'3 6.7
2017-Oct-22 00:00N 30°04' W 093°21'3 6.3
2017-Oct-21 23:30N 30°06' W 093°18'1 2.5
2017-Oct-21 23:00N 30°05' W 093°17'1 1.6
2017-Oct-21 22:30N 30°05' W 093°17'0 0.0
2017-Oct-21 22:00N 30°05' W 093°17'0 0.0
2017-Oct-21 21:30N 30°05' W 093°17'0 0.1
2017-Oct-21 21:00N 30°05' W 093°17'0 1.0
2017-Oct-21 20:30N 30°04' W 093°16'0 0.2
2017-Oct-21 20:00N 30°04' W 093°16'2 3.1
2017-Oct-21 19:30N 30°03' W 093°16'0 0.0
2017-Oct-21 19:00N 30°03' W 093°16'0 0.0
2017-Oct-21 18:30N 30°03' W 093°16'0 0.0
2017-Oct-21 18:00N 30°03' W 093°16'0 0.0
2017-Oct-21 17:30N 30°03' W 093°16'0 0.0
2017-Oct-21 17:00N 30°03' W 093°16'0 0.0
2017-Oct-21 16:30N 30°03' W 093°16'0 0.0
2017-Oct-21 16:00N 30°03' W 093°16'0 0.0
2017-Oct-21 15:30N 30°03' W 093°16'0 0.0
2017-Oct-21 15:00N 30°03' W 093°16'0 0.0
2017-Oct-21 14:30N 30°03' W 093°16'2 1.8
2017-Oct-21 13:30N 30°02' W 093°14'3 5.9
2017-Oct-21 13:00N 29°59' W 093°12'3 6.2
2017-Oct-21 12:30N 29°57' W 093°10'3 5.7
2017-Oct-21 12:00N 29°56' W 093°07'43 5.7
2017-Oct-21 04:31N 29°50' W 092°18'0 6.2
2017-Oct-21 04:30N 29°50' W 092°18'3 5.9
2017-Oct-21 04:00N 29°48' W 092°15'3 5.3
2017-Oct-21 03:30N 29°47' W 092°12'0 0.2
2017-Oct-21 03:00N 29°47' W 092°12'1 1.8
2017-Oct-21 02:30N 29°47' W 092°11'0 0.0
2017-Oct-21 02:00N 29°47' W 092°11'2 4.3
2017-Oct-21 01:30N 29°47' W 092°09'3 6.2
2017-Oct-21 01:00N 29°48' W 092°06'1 1.7
2017-Oct-21 00:30N 29°48' W 092°05'3 6.3
2017-Oct-21 00:00N 29°49' W 092°01'63 2.4
2017-Oct-19 21:25N 29°32' W 090°51'3 6.6
2017-Oct-19 21:00N 29°32' W 090°48'3 5.6
2017-Oct-19 20:30N 29°33' W 090°45'2 4.5
2017-Oct-19 20:00N 29°34' W 090°43'  
Track history (hours):
 
Tides and Currents Weather Stations Pressure Air Temp Water Temp Dewpoint Dewpoint Depression Visibility Wind Speed Wind Dir Waves Ship Positions

Mariner

Owner: Central Boat Rentals, Inc., Morgan City, LA. More information available from US FCC via Universal Licensing System and Coast Guard Vessel Documentation Center.

Last reported at 2017-Oct-29 20:00 UTC. Time now 2017-Nov-22 05:43 UTC.
Position N 29°29' W 090°43'.
Warning: this ship's position is 23 days out of date.

Length 5 m; draft 2 m.

Type: Towing. MMSI: 267014280.

Date/timePositionNaut miles runAvg speedWind from/ knotsBaromVisibWave heightAir tempDewpointWater temp
2017-Oct-29 20:00N 29°29' W 090°43'  
2017-Oct-26 07:59N 29°19' W 090°43'3 3.8
2017-Oct-26 07:15N 29°22' W 090°44'1 4.2
2017-Oct-26 07:00N 29°23' W 090°44'2 4.1
2017-Oct-26 06:30N 29°25' W 090°43'2 4.4
2017-Oct-26 06:00N 29°27' W 090°43'2 4.5
2017-Oct-26 05:30N 29°29' W 090°43'2 4.6
2017-Oct-26 05:00N 29°32' W 090°42'2 4.5
2017-Oct-26 04:30N 29°34' W 090°43'1 1.7
2017-Oct-26 04:00N 29°34' W 090°44'2 4.2
2017-Oct-26 03:30N 29°32' W 090°46'2 4.4
2017-Oct-26 03:00N 29°32' W 090°48'3 4.7
2017-Oct-26 02:27N 29°32' W 090°51'64 2.3
2017-Oct-24 23:09N 29°49' W 092°02'1 7.5
2017-Oct-24 23:00N 29°49' W 092°03'4 7.3
2017-Oct-24 22:30N 29°47' W 092°07'4 7.4
2017-Oct-24 22:00N 29°47' W 092°11'2 3.4
2017-Oct-24 21:30N 29°47' W 092°13'2 3.7
2017-Oct-24 21:00N 29°48' W 092°15'4 7.2
2017-Oct-24 20:30N 29°50' W 092°19'46 6.6
2017-Oct-24 13:33N 29°57' W 093°11'0 6.8
2017-Oct-24 13:29N 29°58' W 093°11'3 6.8
2017-Oct-24 13:00N 30°00' W 093°14'3 6.3
2017-Oct-24 12:30N 30°03' W 093°16'3 6.2
2017-Oct-24 12:00N 30°05' W 093°18'2 3.2
2017-Oct-24 11:30N 30°06' W 093°19'3 6.4
2017-Oct-24 11:00N 30°04' W 093°22'4 7.1
2017-Oct-24 10:30N 30°04' W 093°26'4 7.1
2017-Oct-24 10:00N 30°04' W 093°30'4 7.0
2017-Oct-24 09:30N 30°04' W 093°34'4 7.2
2017-Oct-24 09:00N 30°04' W 093°39'4 7.2
2017-Oct-24 08:29N 30°03' W 093°43'2 4.0
2017-Oct-24 08:00N 30°02' W 093°44'  
2017-Oct-22 01:35N 30°04' W 093°33'1 6.8
2017-Oct-22 01:27N 30°04' W 093°32'3 6.7
2017-Oct-22 01:00N 30°04' W 093°29'3 6.4
2017-Oct-22 00:30N 30°04' W 093°25'3 6.7
2017-Oct-22 00:00N 30°04' W 093°21'3 6.3
2017-Oct-21 23:30N 30°06' W 093°18'1 2.5
2017-Oct-21 23:00N 30°05' W 093°17'1 1.6
2017-Oct-21 22:30N 30°05' W 093°17'0 0.0
2017-Oct-21 22:00N 30°05' W 093°17'0 0.0
2017-Oct-21 21:30N 30°05' W 093°17'0 0.1
2017-Oct-21 21:00N 30°05' W 093°17'0 1.0
2017-Oct-21 20:30N 30°04' W 093°16'0 0.2
2017-Oct-21 20:00N 30°04' W 093°16'2 3.1
2017-Oct-21 19:30N 30°03' W 093°16'0 0.0
2017-Oct-21 19:00N 30°03' W 093°16'0 0.0
2017-Oct-21 18:30N 30°03' W 093°16'0 0.0
2017-Oct-21 18:00N 30°03' W 093°16'0 0.0
2017-Oct-21 17:30N 30°03' W 093°16'0 0.0
2017-Oct-21 17:00N 30°03' W 093°16'0 0.0
2017-Oct-21 16:30N 30°03' W 093°16'0 0.0
2017-Oct-21 16:00N 30°03' W 093°16'0 0.0
2017-Oct-21 15:30N 30°03' W 093°16'0 0.0
2017-Oct-21 15:00N 30°03' W 093°16'0 0.0
2017-Oct-21 14:30N 30°03' W 093°16'2 1.8
2017-Oct-21 13:30N 30°02' W 093°14'3 5.9
2017-Oct-21 13:00N 29°59' W 093°12'3 6.2
2017-Oct-21 12:30N 29°57' W 093°10'3 5.7
2017-Oct-21 12:00N 29°56' W 093°07'43 5.7
2017-Oct-21 04:31N 29°50' W 092°18'0 6.2
2017-Oct-21 04:30N 29°50' W 092°18'3 5.9
2017-Oct-21 04:00N 29°48' W 092°15'3 5.3
2017-Oct-21 03:30N 29°47' W 092°12'0 0.2
2017-Oct-21 03:00N 29°47' W 092°12'1 1.8
2017-Oct-21 02:30N 29°47' W 092°11'0 0.0
2017-Oct-21 02:00N 29°47' W 092°11'2 4.3
2017-Oct-21 01:30N 29°47' W 092°09'3 6.2
2017-Oct-21 01:00N 29°48' W 092°06'1 1.7
2017-Oct-21 00:30N 29°48' W 092°05'3 6.3
2017-Oct-21 00:00N 29°49' W 092°01'63 2.4
2017-Oct-19 21:25N 29°32' W 090°51'3 6.6
2017-Oct-19 21:00N 29°32' W 090°48'3 5.6
2017-Oct-19 20:30N 29°33' W 090°45'2 4.5
2017-Oct-19 20:00N 29°34' W 090°43'  

Dump ship's entire track history